Terminal Aerodrome Forecast
Issued by NWS Sterling, VA

Current Version | Previous Version | Graphics & Text | Print | Product List | Glossary On
Versions: 1 2 3 4 5 6 7 8 9 10 11 12 13 14 15 16 17 18 19 20 21 22 23 24 25 26 27
000
FTUS41 KLWX 302059 AAA
TAFDCA
TAF AMD
KDCA 302059Z 3021/3118 22009KT P6SM BKN050
     FM302200 22008KT P6SM VCTS BKN050CB
     FM310100 22004KT P6SM BKN090
     FM310200 VRB03KT P6SM SCT250
     FM311400 33007KT P6SM FEW250=

USA.gov is the U.S. government's official web portal to all federal, state and local government web resources and services.